Edisto, South Carolina
Current Conditions -  °F | °C
As of 7:35 AM on Sunday 23 Nov 2014 (Local Time) from KJZI Reporting Station
Moderate Rain Moderate Rain  
Wind Chill: 59°   Ceiling: 1900
Heat Index: 59°   Visibility: 1.5mi
Dew Point: 59°   Wind: 9mph
Humidity: 100%   Direction: 30°NNE
Pressure: 30.15"   Gusts: NA
Location:  32.5623°N, 80.3136°W
Report Text: KJZI 231235Z AUTO 03008KT 1 1/2SM RA OVC019 15/15 A3015 RMK A02 P000
Loading
Personal Weather Stations






























Interactive Weather Map New forecast layout! Learn more

10-Day Weather Forecast

Advertisements
Track Severe Weather on mobile